sensor_id;sensor_type;location;lat;lon;timestamp;temperature;humidity
53412;DHT22;39307;52.870;13.660;2024-01-30T00:00:32;5.30;62.70
53412;DHT22;39307;52.870;13.660;2024-01-30T00:02:59;5.30;62.90
53412;DHT22;39307;52.870;13.660;2024-01-30T00:05:26;5.30;62.90
53412;DHT22;39307;52.870;13.660;2024-01-30T00:07:53;5.30;62.90
53412;DHT22;39307;52.870;13.660;2024-01-30T00:10:20;5.30;63.00
53412;DHT22;39307;52.870;13.660;2024-01-30T00:12:47;5.30;62.90
53412;DHT22;39307;52.870;13.660;2024-01-30T00:15:14;5.30;62.80
53412;DHT22;39307;52.870;13.660;2024-01-30T00:17:40;5.30;62.90
53412;DHT22;39307;52.870;13.660;2024-01-30T00:20:07;5.30;62.90
53412;DHT22;39307;52.870;13.660;2024-01-30T00:22:35;5.30;63.00
53412;DHT22;39307;52.870;13.660;2024-01-30T00:25:01;5.20;63.00
53412;DHT22;39307;52.870;13.660;2024-01-30T00:27:29;5.20;63.00
53412;DHT22;39307;52.870;13.660;2024-01-30T00:29:55;5.20;63.00
53412;DHT22;39307;52.870;13.660;2024-01-30T00:32:22;5.20;63.00
53412;DHT22;39307;52.870;13.660;2024-01-30T00:34:49;5.20;63.00
53412;DHT22;39307;52.870;13.660;2024-01-30T00:37:16;5.20;63.10
53412;DHT22;39307;52.870;13.660;2024-01-30T00:39:43;5.20;62.90
53412;DHT22;39307;52.870;13.660;2024-01-30T00:42:09;5.20;63.00
53412;DHT22;39307;52.870;13.660;2024-01-30T00:44:36;5.20;63.00
53412;DHT22;39307;52.870;13.660;2024-01-30T00:47:03;5.10;63.00
53412;DHT22;39307;52.870;13.660;2024-01-30T00:49:30;5.10;63.00
53412;DHT22;39307;52.870;13.660;2024-01-30T00:51:57;5.10;63.00
53412;DHT22;39307;52.870;13.660;2024-01-30T00:54:24;5.10;63.00
53412;DHT22;39307;52.870;13.660;2024-01-30T00:56:51;5.10;63.10
53412;DHT22;39307;52.870;13.660;2024-01-30T00:59:17;5.10;63.00
53412;DHT22;39307;52.870;13.660;2024-01-30T01:01:44;5.10;63.00
53412;DHT22;39307;52.870;13.660;2024-01-30T01:04:11;5.10;63.00
53412;DHT22;39307;52.870;13.660;2024-01-30T01:06:38;5.10;63.10
53412;DHT22;39307;52.870;13.660;2024-01-30T01:09:04;5.10;63.20
53412;DHT22;39307;52.870;13.660;2024-01-30T01:11:31;5.10;63.20
53412;DHT22;39307;52.870;13.660;2024-01-30T01:13:57;5.10;63.10
53412;DHT22;39307;52.870;13.660;2024-01-30T01:16:24;5.00;63.20
53412;DHT22;39307;52.870;13.660;2024-01-30T01:18:51;5.00;63.10
53412;DHT22;39307;52.870;13.660;2024-01-30T01:21:18;5.00;63.20
53412;DHT22;39307;52.870;13.660;2024-01-30T01:23:45;5.00;63.10
53412;DHT22;39307;52.870;13.660;2024-01-30T01:26:11;5.00;63.10
53412;DHT22;39307;52.870;13.660;2024-01-30T01:28:43;5.00;63.10
53412;DHT22;39307;52.870;13.660;2024-01-30T01:31:10;5.00;63.10
53412;DHT22;39307;52.870;13.660;2024-01-30T01:33:37;5.00;63.10
53412;DHT22;39307;52.870;13.660;2024-01-30T01:36:04;5.00;63.50
53412;DHT22;39307;52.870;13.660;2024-01-30T01:38:31;5.00;63.20
53412;DHT22;39307;52.870;13.660;2024-01-30T01:40:58;5.00;63.20
53412;DHT22;39307;52.870;13.660;2024-01-30T01:43:25;5.00;63.20
53412;DHT22;39307;52.870;13.660;2024-01-30T01:45:52;5.00;63.10
53412;DHT22;39307;52.870;13.660;2024-01-30T01:48:18;5.00;63.20
53412;DHT22;39307;52.870;13.660;2024-01-30T01:50:45;5.00;63.30
53412;DHT22;39307;52.870;13.660;2024-01-30T01:53:12;5.00;63.30
53412;DHT22;39307;52.870;13.660;2024-01-30T01:55:40;5.00;63.20
53412;DHT22;39307;52.870;13.660;2024-01-30T01:58:08;5.00;63.30
53412;DHT22;39307;52.870;13.660;2024-01-30T02:00:36;5.00;63.20
53412;DHT22;39307;52.870;13.660;2024-01-30T02:03:05;5.00;63.20
53412;DHT22;39307;52.870;13.660;2024-01-30T02:05:32;5.00;63.20
53412;DHT22;39307;52.870;13.660;2024-01-30T02:07:59;5.00;63.20
53412;DHT22;39307;52.870;13.660;2024-01-30T02:10:26;5.00;63.20
53412;DHT22;39307;52.870;13.660;2024-01-30T02:12:53;4.90;63.20
53412;DHT22;39307;52.870;13.660;2024-01-30T02:15:19;4.90;63.20
53412;DHT22;39307;52.870;13.660;2024-01-30T02:17:46;4.90;63.20
53412;DHT22;39307;52.870;13.660;2024-01-30T02:20:13;6.40;60.70
53412;DHT22;39307;52.870;13.660;2024-01-30T02:22:41;8.80;55.00
53412;DHT22;39307;52.870;13.660;2024-01-30T02:25:08;8.60;54.60
53412;DHT22;39307;52.870;13.660;2024-01-30T02:27:35;7.80;56.30
53412;DHT22;39307;52.870;13.660;2024-01-30T02:30:02;7.20;58.00
53412;DHT22;39307;52.870;13.660;2024-01-30T02:32:29;6.70;59.30
53412;DHT22;39307;52.870;13.660;2024-01-30T02:34:55;6.30;60.20
53412;DHT22;39307;52.870;13.660;2024-01-30T02:37:22;6.10;60.80
53412;DHT22;39307;52.870;13.660;2024-01-30T02:39:49;6.00;61.30
53412;DHT22;39307;52.870;13.660;2024-01-30T02:42:16;5.80;61.60
53412;DHT22;39307;52.870;13.660;2024-01-30T02:44:43;5.70;61.90
53412;DHT22;39307;52.870;13.660;2024-01-30T02:47:09;5.70;62.10
53412;DHT22;39307;52.870;13.660;2024-01-30T02:49:36;5.60;62.20
53412;DHT22;39307;52.870;13.660;2024-01-30T02:52:03;5.60;62.30
53412;DHT22;39307;52.870;13.660;2024-01-30T02:54:31;5.50;62.40
53412;DHT22;39307;52.870;13.660;2024-01-30T02:56:57;5.50;62.40
53412;DHT22;39307;52.870;13.660;2024-01-30T02:59:24;5.50;62.50
53412;DHT22;39307;52.870;13.660;2024-01-30T03:01:51;5.50;62.50
53412;DHT22;39307;52.870;13.660;2024-01-30T03:04:18;5.50;62.50
53412;DHT22;39307;52.870;13.660;2024-01-30T03:06:48;5.50;62.50
53412;DHT22;39307;52.870;13.660;2024-01-30T03:09:16;5.40;62.60
53412;DHT22;39307;52.870;13.660;2024-01-30T03:11:43;5.40;62.60
53412;DHT22;39307;52.870;13.660;2024-01-30T03:14:10;5.40;62.60
53412;DHT22;39307;52.870;13.660;2024-01-30T03:16:38;5.40;62.60
53412;DHT22;39307;52.870;13.660;2024-01-30T03:19:06;5.30;62.60
53412;DHT22;39307;52.870;13.660;2024-01-30T03:21:33;5.30;62.60
53412;DHT22;39307;52.870;13.660;2024-01-30T03:24:00;5.30;62.60
53412;DHT22;39307;52.870;13.660;2024-01-30T03:26:27;5.30;62.70
53412;DHT22;39307;52.870;13.660;2024-01-30T03:28:54;5.30;62.60
53412;DHT22;39307;52.870;13.660;2024-01-30T03:31:21;5.30;62.70
53412;DHT22;39307;52.870;13.660;2024-01-30T03:33:47;5.30;62.70
53412;DHT22;39307;52.870;13.660;2024-01-30T03:36:15;5.30;62.70
53412;DHT22;39307;52.870;13.660;2024-01-30T03:38:42;5.30;62.70
53412;DHT22;39307;52.870;13.660;2024-01-30T03:41:09;5.30;62.70
53412;DHT22;39307;52.870;13.660;2024-01-30T03:43:36;5.30;62.80
53412;DHT22;39307;52.870;13.660;2024-01-30T03:46:04;5.30;62.70
53412;DHT22;39307;52.870;13.660;2024-01-30T03:48:31;5.20;62.70
53412;DHT22;39307;52.870;13.660;2024-01-30T03:50:57;5.20;62.80
53412;DHT22;39307;52.870;13.660;2024-01-30T03:53:24;5.20;62.70
53412;DHT22;39307;52.870;13.660;2024-01-30T03:55:51;5.20;62.90
53412;DHT22;39307;52.870;13.660;2024-01-30T03:58:18;5.20;62.80
53412;DHT22;39307;52.870;13.660;2024-01-30T04:00:45;5.10;62.70
53412;DHT22;39307;52.870;13.660;2024-01-30T04:03:12;5.10;62.90
53412;DHT22;39307;52.870;13.660;2024-01-30T04:05:38;5.10;63.00
53412;DHT22;39307;52.870;13.660;2024-01-30T04:08:06;5.10;62.90
53412;DHT22;39307;52.870;13.660;2024-01-30T04:10:32;5.10;62.90
53412;DHT22;39307;52.870;13.660;2024-01-30T04:13:00;5.10;62.80
53412;DHT22;39307;52.870;13.660;2024-01-30T04:15:27;5.10;62.90
53412;DHT22;39307;52.870;13.660;2024-01-30T04:17:53;5.10;62.90
53412;DHT22;39307;52.870;13.660;2024-01-30T04:20:19;5.10;63.00
53412;DHT22;39307;52.870;13.660;2024-01-30T04:22:46;5.10;62.90
53412;DHT22;39307;52.870;13.660;2024-01-30T04:25:14;5.00;62.90
53412;DHT22;39307;52.870;13.660;2024-01-30T04:27:40;5.00;63.20
53412;DHT22;39307;52.870;13.660;2024-01-30T04:30:08;5.00;63.00
53412;DHT22;39307;52.870;13.660;2024-01-30T04:32:35;5.00;63.00
53412;DHT22;39307;52.870;13.660;2024-01-30T04:35:02;5.00;63.00
53412;DHT22;39307;52.870;13.660;2024-01-30T04:37:29;5.00;62.90
53412;DHT22;39307;52.870;13.660;2024-01-30T04:39:57;5.00;63.00
53412;DHT22;39307;52.870;13.660;2024-01-30T04:42:23;5.00;62.90
53412;DHT22;39307;52.870;13.660;2024-01-30T04:44:50;5.00;63.00
53412;DHT22;39307;52.870;13.660;2024-01-30T04:47:17;5.00;63.00
53412;DHT22;39307;52.870;13.660;2024-01-30T04:49:44;5.00;63.10
53412;DHT22;39307;52.870;13.660;2024-01-30T04:52:11;5.00;63.20
53412;DHT22;39307;52.870;13.660;2024-01-30T04:54:37;5.00;63.00
53412;DHT22;39307;52.870;13.660;2024-01-30T04:57:05;5.00;63.00
53412;DHT22;39307;52.870;13.660;2024-01-30T04:59:31;5.00;63.00
53412;DHT22;39307;52.870;13.660;2024-01-30T05:01:58;5.00;63.10
53412;DHT22;39307;52.870;13.660;2024-01-30T05:04:25;5.00;63.20
53412;DHT22;39307;52.870;13.660;2024-01-30T05:06:52;5.00;63.00
53412;DHT22;39307;52.870;13.660;2024-01-30T05:09:19;5.00;63.20
53412;DHT22;39307;52.870;13.660;2024-01-30T05:11:46;5.00;63.30
53412;DHT22;39307;52.870;13.660;2024-01-30T05:14:13;5.00;63.10
53412;DHT22;39307;52.870;13.660;2024-01-30T05:16:39;4.90;63.30
53412;DHT22;39307;52.870;13.660;2024-01-30T05:19:07;4.90;63.10
53412;DHT22;39307;52.870;13.660;2024-01-30T05:21:33;5.00;63.10
53412;DHT22;39307;52.870;13.660;2024-01-30T05:24:00;7.50;58.00
53412;DHT22;39307;52.870;13.660;2024-01-30T05:26:27;9.20;53.70
53412;DHT22;39307;52.870;13.660;2024-01-30T05:28:54;8.60;54.50
53412;DHT22;39307;52.870;13.660;2024-01-30T05:31:20;7.80;56.40
53412;DHT22;39307;52.870;13.660;2024-01-30T05:33:47;7.10;58.10
53412;DHT22;39307;52.870;13.660;2024-01-30T05:36:14;6.70;59.20
53412;DHT22;39307;52.870;13.660;2024-01-30T05:38:41;6.30;60.10
53412;DHT22;39307;52.870;13.660;2024-01-30T05:41:08;6.10;60.70
53412;DHT22;39307;52.870;13.660;2024-01-30T05:43:35;6.00;61.20
53412;DHT22;39307;52.870;13.660;2024-01-30T05:46:02;5.80;61.50
53412;DHT22;39307;52.870;13.660;2024-01-30T05:48:29;5.80;61.70
53412;DHT22;39307;52.870;13.660;2024-01-30T05:50:56;5.70;61.90
53412;DHT22;39307;52.870;13.660;2024-01-30T05:53:23;5.60;62.00
53412;DHT22;39307;52.870;13.660;2024-01-30T05:55:49;5.60;62.10
53412;DHT22;39307;52.870;13.660;2024-01-30T05:58:16;5.60;62.20
53412;DHT22;39307;52.870;13.660;2024-01-30T06:00:43;5.50;62.20
53412;DHT22;39307;52.870;13.660;2024-01-30T06:03:10;5.50;62.20
53412;DHT22;39307;52.870;13.660;2024-01-30T06:05:37;5.50;62.30
53412;DHT22;39307;52.870;13.660;2024-01-30T06:08:04;5.50;62.30
53412;DHT22;39307;52.870;13.660;2024-01-30T06:10:31;5.50;62.30
53412;DHT22;39307;52.870;13.660;2024-01-30T06:12:58;5.50;62.30
53412;DHT22;39307;52.870;13.660;2024-01-30T06:15:25;5.50;62.40
53412;DHT22;39307;52.870;13.660;2024-01-30T06:17:52;5.40;62.40
53412;DHT22;39307;52.870;13.660;2024-01-30T06:20:19;5.40;62.50
53412;DHT22;39307;52.870;13.660;2024-01-30T06:22:46;5.30;62.40
53412;DHT22;39307;52.870;13.660;2024-01-30T06:25:13;5.40;62.40
53412;DHT22;39307;52.870;13.660;2024-01-30T06:27:40;5.30;62.40
53412;DHT22;39307;52.870;13.660;2024-01-30T06:30:07;5.30;62.50
53412;DHT22;39307;52.870;13.660;2024-01-30T06:32:35;5.30;62.50
53412;DHT22;39307;52.870;13.660;2024-01-30T06:35:02;5.30;62.50
53412;DHT22;39307;52.870;13.660;2024-01-30T06:37:29;5.30;62.50
53412;DHT22;39307;52.870;13.660;2024-01-30T06:39:56;5.30;62.50
53412;DHT22;39307;52.870;13.660;2024-01-30T06:42:22;5.30;62.50
53412;DHT22;39307;52.870;13.660;2024-01-30T06:44:49;5.30;62.50
53412;DHT22;39307;52.870;13.660;2024-01-30T06:47:16;5.30;62.50
53412;DHT22;39307;52.870;13.660;2024-01-30T06:49:43;5.20;62.60
53412;DHT22;39307;52.870;13.660;2024-01-30T06:52:10;5.20;62.50
53412;DHT22;39307;52.870;13.660;2024-01-30T06:54:36;5.20;62.60
53412;DHT22;39307;52.870;13.660;2024-01-30T06:57:03;5.20;62.60
53412;DHT22;39307;52.870;13.660;2024-01-30T06:59:31;5.20;62.60
53412;DHT22;39307;52.870;13.660;2024-01-30T07:01:58;5.10;62.60
53412;DHT22;39307;52.870;13.660;2024-01-30T07:04:25;5.10;62.60
53412;DHT22;39307;52.870;13.660;2024-01-30T07:06:51;5.10;62.60
53412;DHT22;39307;52.870;13.660;2024-01-30T07:09:18;5.10;62.70
53412;DHT22;39307;52.870;13.660;2024-01-30T07:11:45;5.10;62.60
53412;DHT22;39307;52.870;13.660;2024-01-30T07:14:11;5.10;62.70
53412;DHT22;39307;52.870;13.660;2024-01-30T07:16:38;5.10;62.80
53412;DHT22;39307;52.870;13.660;2024-01-30T07:19:05;5.10;62.80
53412;DHT22;39307;52.870;13.660;2024-01-30T07:21:32;5.10;62.80
53412;DHT22;39307;52.870;13.660;2024-01-30T07:23:59;5.00;62.80
53412;DHT22;39307;52.870;13.660;2024-01-30T07:26:26;5.00;62.70
53412;DHT22;39307;52.870;13.660;2024-01-30T07:28:52;5.00;62.90
53412;DHT22;39307;52.870;13.660;2024-01-30T07:31:19;5.00;62.80
53412;DHT22;39307;52.870;13.660;2024-01-30T07:33:46;5.00;62.90
53412;DHT22;39307;52.870;13.660;2024-01-30T07:36:13;5.00;62.70
53412;DHT22;39307;52.870;13.660;2024-01-30T07:38:40;5.00;62.90
53412;DHT22;39307;52.870;13.660;2024-01-30T07:41:07;5.00;62.80
53412;DHT22;39307;52.870;13.660;2024-01-30T07:43:33;5.00;62.90
53412;DHT22;39307;52.870;13.660;2024-01-30T07:46:00;5.00;63.00
53412;DHT22;39307;52.870;13.660;2024-01-30T07:48:27;5.00;62.80
53412;DHT22;39307;52.870;13.660;2024-01-30T07:50:54;5.00;63.00
53412;DHT22;39307;52.870;13.660;2024-01-30T07:53:21;5.00;62.90
53412;DHT22;39307;52.870;13.660;2024-01-30T07:55:48;5.00;62.90
53412;DHT22;39307;52.870;13.660;2024-01-30T07:58:15;5.00;63.00
53412;DHT22;39307;52.870;13.660;2024-01-30T08:00:42;5.00;62.90
53412;DHT22;39307;52.870;13.660;2024-01-30T08:03:08;5.00;63.20
53412;DHT22;39307;52.870;13.660;2024-01-30T08:05:35;4.90;62.90
53412;DHT22;39307;52.870;13.660;2024-01-30T08:08:02;4.90;63.10
53412;DHT22;39307;52.870;13.660;2024-01-30T08:10:29;4.90;62.90
53412;DHT22;39307;52.870;13.660;2024-01-30T08:12:56;5.00;62.90
53412;DHT22;39307;52.870;13.660;2024-01-30T08:15:23;7.40;58.30
53412;DHT22;39307;52.870;13.660;2024-01-30T08:17:50;9.20;53.40
53412;DHT22;39307;52.870;13.660;2024-01-30T08:20:17;8.60;54.10
53412;DHT22;39307;52.870;13.660;2024-01-30T08:22:44;7.80;56.10
53412;DHT22;39307;52.870;13.660;2024-01-30T08:25:10;7.20;57.70
53412;DHT22;39307;52.870;13.660;2024-01-30T08:27:37;6.70;59.00
53412;DHT22;39307;52.870;13.660;2024-01-30T08:30:06;6.40;59.80
53412;DHT22;39307;52.870;13.660;2024-01-30T08:32:33;6.10;60.40
53412;DHT22;39307;52.870;13.660;2024-01-30T08:35:00;6.00;60.90
53412;DHT22;39307;52.870;13.660;2024-01-30T08:37:27;5.90;61.20
53412;DHT22;39307;52.870;13.660;2024-01-30T08:39:53;5.80;61.50
53412;DHT22;39307;52.870;13.660;2024-01-30T08:42:20;5.70;61.60
53412;DHT22;39307;52.870;13.660;2024-01-30T08:44:47;5.60;61.80
53412;DHT22;39307;52.870;13.660;2024-01-30T08:47:14;5.60;61.90
53412;DHT22;39307;52.870;13.660;2024-01-30T08:49:41;5.60;61.90
53412;DHT22;39307;52.870;13.660;2024-01-30T08:52:08;5.50;62.00
53412;DHT22;39307;52.870;13.660;2024-01-30T08:54:35;5.50;62.00
53412;DHT22;39307;52.870;13.660;2024-01-30T08:57:01;5.50;62.10
53412;DHT22;39307;52.870;13.660;2024-01-30T08:59:28;5.50;62.10
53412;DHT22;39307;52.870;13.660;2024-01-30T09:01:55;5.50;62.10
53412;DHT22;39307;52.870;13.660;2024-01-30T09:04:22;5.50;62.10
53412;DHT22;39307;52.870;13.660;2024-01-30T09:06:49;5.40;62.10
53412;DHT22;39307;52.870;13.660;2024-01-30T09:09:16;5.40;62.20
53412;DHT22;39307;52.870;13.660;2024-01-30T09:11:43;5.40;62.20
53412;DHT22;39307;52.870;13.660;2024-01-30T09:14:10;5.40;62.20
53412;DHT22;39307;52.870;13.660;2024-01-30T09:16:37;5.30;62.20
53412;DHT22;39307;52.870;13.660;2024-01-30T09:19:04;5.30;62.20
53412;DHT22;39307;52.870;13.660;2024-01-30T09:21:31;5.30;62.20
53412;DHT22;39307;52.870;13.660;2024-01-30T09:24:07;5.30;62.30
53412;DHT22;39307;52.870;13.660;2024-01-30T09:26:33;5.30;62.20
53412;DHT22;39307;52.870;13.660;2024-01-30T09:29:00;5.30;62.20
53412;DHT22;39307;52.870;13.660;2024-01-30T09:31:27;5.30;62.30
53412;DHT22;39307;52.870;13.660;2024-01-30T09:33:54;5.30;62.30
53412;DHT22;39307;52.870;13.660;2024-01-30T09:36:21;5.30;62.40
53412;DHT22;39307;52.870;13.660;2024-01-30T09:38:47;5.30;62.20
53412;DHT22;39307;52.870;13.660;2024-01-30T09:41:15;5.30;62.30
53412;DHT22;39307;52.870;13.660;2024-01-30T09:43:42;5.20;62.30
53412;DHT22;39307;52.870;13.660;2024-01-30T09:46:15;5.20;62.30
53412;DHT22;39307;52.870;13.660;2024-01-30T09:48:42;5.10;62.30
53412;DHT22;39307;52.870;13.660;2024-01-30T09:51:14;5.20;62.40
53412;DHT22;39307;52.870;13.660;2024-01-30T09:53:42;5.10;62.40
53412;DHT22;39307;52.870;13.660;2024-01-30T09:56:09;5.10;62.50
53412;DHT22;39307;52.870;13.660;2024-01-30T09:58:36;5.10;62.50
53412;DHT22;39307;52.870;13.660;2024-01-30T10:01:03;5.10;62.40
53412;DHT22;39307;52.870;13.660;2024-01-30T10:03:30;5.10;62.60
53412;DHT22;39307;52.870;13.660;2024-01-30T10:05:57;5.10;62.60
53412;DHT22;39307;52.870;13.660;2024-01-30T10:08:26;5.00;62.60
53412;DHT22;39307;52.870;13.660;2024-01-30T10:10:53;5.10;62.50
53412;DHT22;39307;52.870;13.660;2024-01-30T10:13:20;5.00;62.60
53412;DHT22;39307;52.870;13.660;2024-01-30T10:15:47;5.00;62.70
53412;DHT22;39307;52.870;13.660;2024-01-30T10:18:14;5.00;62.50
53412;DHT22;39307;52.870;13.660;2024-01-30T10:20:41;5.00;62.60
53412;DHT22;39307;52.870;13.660;2024-01-30T10:23:09;5.00;62.50
53412;DHT22;39307;52.870;13.660;2024-01-30T10:25:36;5.00;62.50
53412;DHT22;39307;52.870;13.660;2024-01-30T10:28:03;5.00;62.60
53412;DHT22;39307;52.870;13.660;2024-01-30T10:30:30;5.00;62.50
53412;DHT22;39307;52.870;13.660;2024-01-30T10:32:58;5.00;62.60
53412;DHT22;39307;52.870;13.660;2024-01-30T10:35:24;5.00;62.70
53412;DHT22;39307;52.870;13.660;2024-01-30T10:37:51;5.00;62.60
53412;DHT22;39307;52.870;13.660;2024-01-30T10:40:22;5.00;62.80
53412;DHT22;39307;52.870;13.660;2024-01-30T10:42:55;5.00;62.70
53412;DHT22;39307;52.870;13.660;2024-01-30T10:45:23;5.00;62.80
53412;DHT22;39307;52.870;13.660;2024-01-30T10:47:55;5.00;62.70
53412;DHT22;39307;52.870;13.660;2024-01-30T10:50:25;4.90;62.90
53412;DHT22;39307;52.870;13.660;2024-01-30T10:52:53;4.90;62.60
53412;DHT22;39307;52.870;13.660;2024-01-30T10:55:22;4.90;62.70
53412;DHT22;39307;52.870;13.660;2024-01-30T10:57:51;4.90;62.60
53412;DHT22;39307;52.870;13.660;2024-01-30T11:00:18;5.10;62.30
53412;DHT22;39307;52.870;13.660;2024-01-30T11:02:46;7.80;56.90
53412;DHT22;39307;52.870;13.660;2024-01-30T11:05:13;9.10;53.30
53412;DHT22;39307;52.870;13.660;2024-01-30T11:07:40;8.40;54.30
53412;DHT22;39307;52.870;13.660;2024-01-30T11:10:07;7.60;56.20
53412;DHT22;39307;52.870;13.660;2024-01-30T11:12:39;7.00;57.70
53412;DHT22;39307;52.870;13.660;2024-01-30T11:15:10;6.60;58.90
53412;DHT22;39307;52.870;13.660;2024-01-30T11:20:21;6.10;60.30
53412;DHT22;39307;52.870;13.660;2024-01-30T11:22:56;5.90;60.70
53412;DHT22;39307;52.870;13.660;2024-01-30T11:25:24;5.80;61.10
53412;DHT22;39307;52.870;13.660;2024-01-30T11:27:55;5.70;61.20
53412;DHT22;39307;52.870;13.660;2024-01-30T11:30:26;5.60;61.40
53412;DHT22;39307;52.870;13.660;2024-01-30T11:33:05;5.60;61.50
53412;DHT22;39307;52.870;13.660;2024-01-30T11:35:38;5.60;61.60
53412;DHT22;39307;52.870;13.660;2024-01-30T11:38:07;5.50;61.60
53412;DHT22;39307;52.870;13.660;2024-01-30T11:40:36;5.50;61.70
53412;DHT22;39307;52.870;13.660;2024-01-30T11:43:06;5.50;61.70
53412;DHT22;39307;52.870;13.660;2024-01-30T11:45:34;5.50;61.70
53412;DHT22;39307;52.870;13.660;2024-01-30T11:48:02;5.50;61.70
53412;DHT22;39307;52.870;13.660;2024-01-30T11:50:35;5.50;61.70
53412;DHT22;39307;52.870;13.660;2024-01-30T11:53:05;5.40;61.80
53412;DHT22;39307;52.870;13.660;2024-01-30T11:55:32;5.30;61.80
53412;DHT22;39307;52.870;13.660;2024-01-30T11:58:00;5.30;61.80
53412;DHT22;39307;52.870;13.660;2024-01-30T12:00:26;5.30;61.90
53412;DHT22;39307;52.870;13.660;2024-01-30T12:02:55;5.30;61.90
53412;DHT22;39307;52.870;13.660;2024-01-30T12:05:23;5.30;61.90
53412;DHT22;39307;52.870;13.660;2024-01-30T12:07:50;5.30;62.10
53412;DHT22;39307;52.870;13.660;2024-01-30T12:10:17;5.30;62.20
53412;DHT22;39307;52.870;13.660;2024-01-30T12:12:47;5.30;62.10
53412;DHT22;39307;52.870;13.660;2024-01-30T12:15:16;5.30;62.10
53412;DHT22;39307;52.870;13.660;2024-01-30T12:17:44;5.30;62.10
53412;DHT22;39307;52.870;13.660;2024-01-30T12:20:13;5.20;62.10
53412;DHT22;39307;52.870;13.660;2024-01-30T12:22:43;5.20;62.20
53412;DHT22;39307;52.870;13.660;2024-01-30T12:25:21;5.20;62.00
53412;DHT22;39307;52.870;13.660;2024-01-30T12:27:49;5.20;62.10
53412;DHT22;39307;52.870;13.660;2024-01-30T12:30:17;5.10;62.10
53412;DHT22;39307;52.870;13.660;2024-01-30T12:32:46;5.10;62.20
53412;DHT22;39307;52.870;13.660;2024-01-30T12:35:17;5.10;62.10
53412;DHT22;39307;52.870;13.660;2024-01-30T12:37:45;5.10;62.30
53412;DHT22;39307;52.870;13.660;2024-01-30T12:40:14;5.10;62.20
53412;DHT22;39307;52.870;13.660;2024-01-30T12:42:41;5.10;62.10
53412;DHT22;39307;52.870;13.660;2024-01-30T12:45:09;5.10;62.10
53412;DHT22;39307;52.870;13.660;2024-01-30T12:47:36;5.10;62.20
53412;DHT22;39307;52.870;13.660;2024-01-30T12:50:03;5.10;62.10
53412;DHT22;39307;52.870;13.660;2024-01-30T12:52:30;5.10;62.10
53412;DHT22;39307;52.870;13.660;2024-01-30T12:54:57;5.10;62.20
53412;DHT22;39307;52.870;13.660;2024-01-30T12:57:24;5.00;62.10
53412;DHT22;39307;52.870;13.660;2024-01-30T12:59:51;5.00;62.20
53412;DHT22;39307;52.870;13.660;2024-01-30T13:02:17;5.00;62.10
53412;DHT22;39307;52.870;13.660;2024-01-30T13:04:45;5.00;62.10
53412;DHT22;39307;52.870;13.660;2024-01-30T13:07:12;5.00;62.20
53412;DHT22;39307;52.870;13.660;2024-01-30T13:09:39;5.00;62.10
53412;DHT22;39307;52.870;13.660;2024-01-30T13:12:06;5.00;62.20
53412;DHT22;39307;52.870;13.660;2024-01-30T13:14:33;5.00;62.20
53412;DHT22;39307;52.870;13.660;2024-01-30T13:17:00;5.00;62.10
53412;DHT22;39307;52.870;13.660;2024-01-30T13:19:26;5.00;62.20
53412;DHT22;39307;52.870;13.660;2024-01-30T13:21:53;5.00;62.20
53412;DHT22;39307;52.870;13.660;2024-01-30T13:24:20;5.00;62.20
53412;DHT22;39307;52.870;13.660;2024-01-30T13:26:46;5.00;62.30
53412;DHT22;39307;52.870;13.660;2024-01-30T13:29:14;4.90;62.20
53412;DHT22;39307;52.870;13.660;2024-01-30T13:31:41;5.00;62.20
53412;DHT22;39307;52.870;13.660;2024-01-30T13:34:07;4.90;62.30
53412;DHT22;39307;52.870;13.660;2024-01-30T13:36:34;5.00;62.20
53412;DHT22;39307;52.870;13.660;2024-01-30T13:39:01;4.90;62.20
53412;DHT22;39307;52.870;13.660;2024-01-30T13:41:28;4.90;62.20
53412;DHT22;39307;52.870;13.660;2024-01-30T13:43:55;4.90;62.30
53412;DHT22;39307;52.870;13.660;2024-01-30T13:46:22;5.90;60.70
53412;DHT22;39307;52.870;13.660;2024-01-30T13:48:48;8.70;54.60
53412;DHT22;39307;52.870;13.660;2024-01-30T13:51:16;9.00;53.00
53412;DHT22;39307;52.870;13.660;2024-01-30T13:53:43;8.20;54.60
53412;DHT22;39307;52.870;13.660;2024-01-30T13:56:10;7.50;56.40
53412;DHT22;39307;52.870;13.660;2024-01-30T13:58:36;6.90;57.90
53412;DHT22;39307;52.870;13.660;2024-01-30T14:01:03;6.50;58.90
53412;DHT22;39307;52.870;13.660;2024-01-30T14:03:30;6.30;59.70
53412;DHT22;39307;52.870;13.660;2024-01-30T14:05:57;6.10;60.20
53412;DHT22;39307;52.870;13.660;2024-01-30T14:08:24;5.90;60.60
53412;DHT22;39307;52.870;13.660;2024-01-30T14:10:51;5.80;60.90
53412;DHT22;39307;52.870;13.660;2024-01-30T14:13:18;5.70;61.10
53412;DHT22;39307;52.870;13.660;2024-01-30T14:15:45;5.70;61.20
53412;DHT22;39307;52.870;13.660;2024-01-30T14:18:12;5.70;61.30
53412;DHT22;39307;52.870;13.660;2024-01-30T14:20:39;5.60;61.40
53412;DHT22;39307;52.870;13.660;2024-01-30T14:23:05;5.60;61.50
53412;DHT22;39307;52.870;13.660;2024-01-30T14:25:32;5.50;61.50
53412;DHT22;39307;52.870;13.660;2024-01-30T14:27:59;5.50;61.50
53412;DHT22;39307;52.870;13.660;2024-01-30T14:30:26;5.50;61.60
53412;DHT22;39307;52.870;13.660;2024-01-30T14:32:53;5.50;61.60
53412;DHT22;39307;52.870;13.660;2024-01-30T14:35:20;5.50;61.70
53412;DHT22;39307;52.870;13.660;2024-01-30T14:37:47;5.50;61.70
53412;DHT22;39307;52.870;13.660;2024-01-30T14:40:14;5.50;61.70
53412;DHT22;39307;52.870;13.660;2024-01-30T14:42:40;5.50;61.80
53412;DHT22;39307;52.870;13.660;2024-01-30T14:45:07;5.40;61.80
53412;DHT22;39307;52.870;13.660;2024-01-30T14:47:34;5.30;61.80
53412;DHT22;39307;52.870;13.660;2024-01-30T14:50:02;5.40;61.90
53412;DHT22;39307;52.870;13.660;2024-01-30T14:52:29;5.30;61.80
53412;DHT22;39307;52.870;13.660;2024-01-30T14:54:56;5.30;62.00
53412;DHT22;39307;52.870;13.660;2024-01-30T14:57:23;5.30;62.00
53412;DHT22;39307;52.870;13.660;2024-01-30T14:59:50;5.30;62.00
53412;DHT22;39307;52.870;13.660;2024-01-30T15:02:17;5.30;62.00
53412;DHT22;39307;52.870;13.660;2024-01-30T15:04:44;5.30;61.90
53412;DHT22;39307;52.870;13.660;2024-01-30T15:07:11;5.30;62.00
53412;DHT22;39307;52.870;13.660;2024-01-30T15:09:38;5.30;62.00
53412;DHT22;39307;52.870;13.660;2024-01-30T15:12:05;5.30;62.00
53412;DHT22;39307;52.870;13.660;2024-01-30T15:14:31;5.30;62.10
53412;DHT22;39307;52.870;13.660;2024-01-30T15:16:58;5.30;62.00
53412;DHT22;39307;52.870;13.660;2024-01-30T15:19:25;5.20;62.00
53412;DHT22;39307;52.870;13.660;2024-01-30T15:21:51;5.20;62.00
53412;DHT22;39307;52.870;13.660;2024-01-30T15:24:18;5.20;62.00
53412;DHT22;39307;52.870;13.660;2024-01-30T15:26:45;5.20;62.00
53412;DHT22;39307;52.870;13.660;2024-01-30T15:29:12;5.20;62.10
53412;DHT22;39307;52.870;13.660;2024-01-30T15:31:39;5.20;62.00